Time;durP1;ratioP1;P1;durP2;ratioP2;P2;SDS_P1;SDS_P2;PMS_P1;PMS_P2;Temp;Humidity;BMP_temperature;BMP_pressure;BME280_temperature;BME280_humidity;BME280_pressure;Samples;Min_cycle;Max_cycle;Signal;HPM_P1;HPM_P2
2021/04/09 00:02:56;;;;;;;8.73;6.10;;;0.50;82.10;;;;;;6198023;28;20497;-76
2021/04/09 00:05:58;;;;;;;8.60;5.20;;;0.50;82.10;;;;;;6197139;28;20149;-76
2021/04/09 00:08:59;;;;;;;7.00;5.97;;;0.50;82.50;;;;;;6197424;28;20070;-76
2021/04/09 00:12:00;;;;;;;10.93;6.67;;;0.40;83.00;;;;;;6195894;28;20064;-77
2021/04/09 00:15:02;;;;;;;8.50;6.33;;;0.50;83.20;;;;;;6197974;28;20050;-76
2021/04/09 00:18:04;;;;;;;9.47;5.93;;;0.40;82.70;;;;;;6197450;28;20434;-76
2021/04/09 00:21:07;;;;;;;10.10;7.80;;;0.40;82.70;;;;;;6197534;28;20147;-76
2021/04/09 00:24:09;;;;;;;11.70;7.67;;;0.30;83.00;;;;;;6197006;28;20492;-76
2021/04/09 00:27:11;;;;;;;9.87;7.87;;;0.30;83.30;;;;;;6197887;28;20508;-76
2021/04/09 00:30:17;;;;;;;7.87;5.67;;;0.30;83.40;;;;;;6197666;28;20050;-77
2021/04/09 00:33:19;;;;;;;10.07;6.67;;;0.30;83.20;;;;;;6197287;28;20050;-76
2021/04/09 00:36:21;;;;;;;12.07;7.40;;;0.20;83.60;;;;;;6197181;28;20106;-77
2021/04/09 00:39:23;;;;;;;7.87;6.20;;;0.20;84.20;;;;;;6197259;28;20054;-75
2021/04/09 00:42:24;;;;;;;8.77;6.00;;;0.10;84.00;;;;;;6197883;28;20058;-76
2021/04/09 00:45:25;;;;;;;10.30;6.07;;;0.10;84.30;;;;;;6197236;28;20428;-76
2021/04/09 00:48:27;;;;;;;9.30;7.43;;;0.10;84.20;;;;;;6201363;28;20093;-77
2021/04/09 00:51:30;;;;;;;9.13;6.33;;;0.10;84.70;;;;;;6201548;28;20497;-76
2021/04/09 00:54:31;;;;;;;8.63;5.90;;;0.20;84.60;;;;;;6202561;28;20050;-76
2021/04/09 00:57:33;;;;;;;8.10;6.23;;;0.10;84.90;;;;;;6201533;28;20122;-76
2021/04/09 01:00:35;;;;;;;9.73;5.73;;;0.20;85.20;;;;;;6201350;28;20456;-76
2021/04/09 01:03:36;;;;;;;11.97;6.60;;;0.10;85.00;;;;;;6201264;28;20418;-76
2021/04/09 01:06:38;;;;;;;11.73;7.07;;;0.10;85.40;;;;;;6201423;28;20133;-76
2021/04/09 01:09:40;;;;;;;12.13;6.77;;;0.10;85.30;;;;;;6201259;28;20076;-76
2021/04/09 01:12:41;;;;;;;8.70;6.10;;;0.10;85.50;;;;;;6202266;28;20049;-76
2021/04/09 01:15:42;;;;;;;9.27;5.87;;;0.10;85.50;;;;;;6201760;28;20053;-76
2021/04/09 01:18:51;;;;;;;4.90;4.40;;;0.10;85.80;;;;;;6202161;28;20101;-76
2021/04/09 01:21:58;;;;;;;7.13;6.43;;;0.10;85.80;;;;;;6201393;28;20133;-76
2021/04/09 01:25:44;;;;;;;7.03;5.03;;;0.10;86.00;;;;;;6201282;28;20065;-76
2021/04/09 01:28:58;;;;;;;8.37;6.27;;;0.00;86.10;;;;;;6126144;29;20048;-77
2021/04/09 01:32:02;;;;;;;6.03;5.23;;;0.00;86.10;;;;;;6201297;28;20136;-76
2021/04/09 01:35:11;;;;;;;11.20;5.43;;;0.00;86.30;;;;;;6201403;28;20271;-76
2021/04/09 01:38:17;;;;;;;9.33;5.67;;;-0.10;86.60;;;;;;6199771;28;20091;-76
2021/04/09 01:41:20;;;;;;;7.70;6.20;;;-0.10;87.20;;;;;;6243274;23;20483;-76
2021/04/09 01:44:25;;;;;;;7.00;6.07;;;-0.10;87.30;;;;;;6225382;28;20129;-75
2021/04/09 01:47:28;;;;;;;5.87;5.17;;;-0.20;87.20;;;;;;6225510;28;20056;-75
2021/04/09 01:50:32;;;;;;;11.07;6.40;;;-0.30;87.40;;;;;;6225862;28;20061;-75
2021/04/09 01:53:34;;;;;;;7.73;5.77;;;-0.40;87.80;;;;;;6225074;28;20132;-75
2021/04/09 01:56:36;;;;;;;9.53;6.03;;;-0.40;88.20;;;;;;6224403;28;20073;-75
2021/04/09 01:59:40;;;;;;;7.37;5.00;;;-0.30;88.30;;;;;;6224359;28;20130;-76
2021/04/09 02:02:45;;;;;;;5.63;4.27;;;-0.40;88.20;;;;;;6224766;28;20524;-75
2021/04/09 02:05:48;;;;;;;5.13;4.60;;;-0.40;88.30;;;;;;6224495;28;20053;-75
2021/04/09 02:08:50;;;;;;;8.07;5.43;;;-0.40;88.60;;;;;;6224741;28;20046;-76
2021/04/09 02:11:52;;;;;;;9.40;5.23;;;-0.40;88.70;;;;;;6224553;28;20048;-75
2021/04/09 02:14:56;;;;;;;8.27;5.60;;;-0.40;88.80;;;;;;6224592;28;20136;-75
2021/04/09 02:18:00;;;;;;;5.63;5.13;;;-0.40;88.80;;;;;;6224218;28;20129;-75
2021/04/09 02:21:02;;;;;;;11.33;7.97;;;-0.40;89.10;;;;;;6224117;28;20530;-75
2021/04/09 02:24:04;;;;;;;15.37;5.13;;;-0.40;89.00;;;;;;6224070;28;20570;-75
2021/04/09 02:27:06;;;;;;;6.57;5.63;;;-0.40;89.20;;;;;;6224822;28;20045;-75
2021/04/09 02:30:10;;;;;;;8.13;5.90;;;-0.40;89.30;;;;;;6224011;28;20124;-75
2021/04/09 02:33:12;;;;;;;8.60;7.03;;;-0.40;89.20;;;;;;6223714;28;20046;-75
2021/04/09 02:36:17;;;;;;;8.17;5.77;;;-0.40;89.30;;;;;;6223888;28;20082;-75
2021/04/09 02:39:21;;;;;;;9.10;7.67;;;-0.40;89.40;;;;;;6223939;28;20137;-75
2021/04/09 02:42:23;;;;;;;7.93;5.73;;;-0.40;89.30;;;;;;6224092;28;20504;-75
2021/04/09 02:45:25;;;;;;;6.73;6.00;;;-0.50;89.50;;;;;;6223359;28;20046;-76
2021/04/09 02:48:34;;;;;;;8.97;6.67;;;-0.50;89.60;;;;;;6223745;28;20080;-76
2021/04/09 02:51:36;;;;;;;8.13;5.87;;;-0.60;89.50;;;;;;6223517;28;20053;-76
2021/04/09 02:54:38;;;;;;;8.50;5.73;;;-0.60;90.10;;;;;;6224039;28;20384;-75
2021/04/09 02:57:40;;;;;;;10.17;6.50;;;-0.60;90.00;;;;;;6223304;28;20092;-75
2021/04/09 03:00:45;;;;;;;7.47;5.83;;;-0.70;90.10;;;;;;6223419;28;20196;-75
2021/04/09 03:03:47;;;;;;;7.27;6.23;;;-0.80;90.20;;;;;;6223285;28;20037;-76
2021/04/09 03:06:49;;;;;;;7.73;5.63;;;-0.80;90.60;;;;;;6223821;28;20126;-76
2021/04/09 03:09:51;;;;;;;9.03;5.67;;;-0.80;90.50;;;;;;6222198;28;20041;-76
2021/04/09 03:12:52;;;;;;;7.13;6.43;;;-0.80;90.50;;;;;;6223240;28;20522;-76
2021/04/09 03:15:58;;;;;;;8.80;5.33;;;-0.80;90.60;;;;;;6223074;28;20069;-75
2021/04/09 03:19:00;;;;;;;8.77;5.63;;;-0.80;90.80;;;;;;6223691;28;20046;-76
2021/04/09 03:22:07;;;;;;;8.60;5.83;;;-0.70;90.90;;;;;;6222999;28;20077;-75
2021/04/09 03:25:09;;;;;;;8.18;4.45;;;-0.70;90.90;;;;;;6222594;28;20528;-75
2021/04/09 03:28:11;;;;;;;6.00;4.93;;;-0.70;90.80;;;;;;6223091;28;20046;-76
2021/04/09 03:31:12;;;;;;;6.07;5.40;;;-0.60;90.80;;;;;;6223350;28;20088;-75
2021/04/09 03:34:14;;;;;;;8.00;5.60;;;-0.60;91.10;;;;;;6223318;28;20053;-77
2021/04/09 03:37:15;;;;;;;7.37;5.73;;;-0.70;90.90;;;;;;6223140;28;20042;-77
2021/04/09 03:40:18;;;;;;;8.43;6.33;;;-0.70;91.00;;;;;;6222323;28;20578;-76
2021/04/09 03:43:20;;;;;;;9.10;5.63;;;-0.60;91.00;;;;;;6222911;28;20095;-76
2021/04/09 03:46:21;;;;;;;6.93;5.87;;;-0.60;91.30;;;;;;6222717;28;20577;-76
2021/04/09 03:49:24;;;;;;;8.67;5.90;;;-0.60;91.10;;;;;;6222935;28;20459;-75
2021/04/09 03:52:25;;;;;;;6.17;5.47;;;-0.60;91.10;;;;;;6222565;28;20588;-76
2021/04/09 03:55:26;;;;;;;6.03;5.00;;;-0.70;91.10;;;;;;6221987;28;20523;-76
2021/04/09 03:58:28;;;;;;;6.87;6.17;;;-0.80;91.30;;;;;;6222945;28;20046;-76
2021/04/09 04:01:30;;;;;;;8.03;5.37;;;-0.70;91.60;;;;;;6222607;28;20123;-75
2021/04/09 04:04:32;;;;;;;10.23;7.00;;;-0.70;91.60;;;;;;6222138;28;20482;-76
2021/04/09 04:07:33;;;;;;;9.90;6.90;;;-0.70;91.70;;;;;;6222964;28;20452;-76
2021/04/09 04:10:35;;;;;;;6.43;5.77;;;-0.70;91.60;;;;;;6223421;28;20077;-75
2021/04/09 04:13:36;;;;;;;8.03;6.10;;;-0.70;91.70;;;;;;6222464;28;20129;-76
2021/04/09 04:16:37;;;;;;;8.80;6.43;;;-0.60;91.70;;;;;;6222172;28;20538;-75
2021/04/09 04:19:39;;;;;;;11.53;6.87;;;-0.70;91.60;;;;;;6222326;28;20130;-75
2021/04/09 04:22:41;;;;;;;8.93;6.00;;;-0.70;91.60;;;;;;6226694;28;20132;-76
2021/04/09 04:25:42;;;;;;;10.87;6.87;;;-0.70;91.70;;;;;;6226810;28;20054;-76
2021/04/09 04:28:44;;;;;;;7.60;5.30;;;-0.70;91.80;;;;;;6227082;28;20550;-75
2021/04/09 04:31:45;;;;;;;6.87;6.17;;;-0.70;91.90;;;;;;6228022;28;20088;-74
2021/04/09 04:34:47;;;;;;;11.70;6.87;;;-0.70;91.80;;;;;;6229575;28;20128;-75
2021/04/09 04:37:48;;;;;;;7.27;6.30;;;-0.70;91.90;;;;;;6229014;28;20046;-74
2021/04/09 04:40:50;;;;;;;6.93;6.23;;;-0.70;92.00;;;;;;6229569;28;20054;-75
2021/04/09 04:43:52;;;;;;;10.07;6.33;;;-0.70;91.90;;;;;;6230141;28;20044;-74
2021/04/09 04:46:53;;;;;;;10.50;5.37;;;-0.70;92.00;;;;;;6240956;28;20519;-76
2021/04/09 04:49:55;;;;;;;13.37;6.73;;;-0.70;92.00;;;;;;6226288;28;20069;-75
2021/04/09 04:52:56;;;;;;;12.17;7.63;;;-0.70;92.00;;;;;;6226612;28;20140;-77
2021/04/09 04:55:58;;;;;;;7.83;7.07;;;-0.70;92.00;;;;;;6226614;28;20129;-77
2021/04/09 04:58:59;;;;;;;10.53;6.43;;;-0.70;92.10;;;;;;6226773;28;20124;-77
2021/04/09 05:02:00;;;;;;;6.40;5.17;;;-0.60;92.00;;;;;;6225974;28;20129;-77
2021/04/09 05:05:05;;;;;;;6.93;5.60;;;-0.60;92.20;;;;;;6225891;28;20046;-77
2021/04/09 05:08:06;;;;;;;19.13;6.83;;;-0.50;92.00;;;;;;6225685;28;20511;-77
2021/04/09 05:11:08;;;;;;;15.90;6.90;;;-0.50;92.00;;;;;;6225999;28;20493;-76
2021/04/09 05:14:10;;;;;;;8.83;6.00;;;-0.40;92.00;;;;;;6225855;28;20535;-74
2021/04/09 05:17:11;;;;;;;10.33;6.30;;;-0.40;92.00;;;;;;6225607;28;20066;-77
2021/04/09 05:20:15;;;;;;;14.03;7.67;;;-0.30;92.00;;;;;;6225840;28;20129;-76
2021/04/09 05:23:16;;;;;;;19.00;8.37;;;-0.20;91.90;;;;;;6225469;28;20494;-76
2021/04/09 05:26:17;;;;;;;26.03;7.70;;;0.00;91.70;;;;;;6226124;28;20559;-76
2021/04/09 05:29:19;;;;;;;19.23;7.90;;;0.10;91.50;;;;;;6225225;28;20474;-76
2021/04/09 05:32:20;;;;;;;12.50;7.93;;;0.20;91.30;;;;;;6224291;28;20670;-76
2021/04/09 05:35:24;;;;;;;21.60;7.90;;;0.30;91.10;;;;;;6225120;28;20188;-76
2021/04/09 05:38:26;;;;;;;17.03;8.20;;;0.50;91.00;;;;;;6225318;28;20148;-76
2021/04/09 05:41:27;;;;;;;11.87;6.63;;;0.60;90.70;;;;;;6225052;28;20133;-76
2021/04/09 05:44:30;;;;;;;9.47;6.70;;;0.80;90.50;;;;;;6224799;28;20073;-76
2021/04/09 05:47:31;;;;;;;8.10;5.47;;;0.90;90.30;;;;;;6225061;28;20137;-76
2021/04/09 05:50:35;;;;;;;11.17;6.37;;;1.10;90.20;;;;;;6225145;28;20184;-76
2021/04/09 05:53:36;;;;;;;14.93;6.40;;;1.30;90.00;;;;;;6224646;28;20132;-76
2021/04/09 05:56:38;;;;;;;8.33;7.03;;;1.60;89.90;;;;;;6224454;28;20169;-76
2021/04/09 05:59:39;;;;;;;25.73;7.70;;;2.00;89.80;;;;;;6224382;28;20046;-76
2021/04/09 06:02:40;;;;;;;8.87;6.60;;;2.40;89.20;;;;;;6224837;28;20137;-75
2021/04/09 06:05:43;;;;;;;19.57;5.60;;;2.70;88.10;;;;;;6204210;28;20042;-76
2021/04/09 06:08:44;;;;;;;13.10;4.87;;;3.10;86.80;;;;;;6200420;28;20072;-75
2021/04/09 06:11:45;;;;;;;9.50;5.57;;;3.50;85.90;;;;;;6200484;28;20065;-75
2021/04/09 06:14:47;;;;;;;7.30;4.47;;;3.80;84.50;;;;;;6200064;28;20444;-76
2021/04/09 06:17:48;;;;;;;6.77;4.57;;;4.00;83.50;;;;;;6199841;28;20100;-77
2021/04/09 06:20:50;;;;;;;6.23;4.80;;;4.10;82.20;;;;;;6199648;28;20042;-75
2021/04/09 06:23:51;;;;;;;6.77;4.17;;;4.30;81.70;;;;;;6244745;28;20096;-75
2021/04/09 06:26:53;;;;;;;4.30;4.00;;;4.50;80.60;;;;;;6249120;28;20050;-76
2021/04/09 06:29:54;;;;;;;10.82;4.97;;;4.70;79.50;;;;;;6248615;28;20123;-75
2021/04/09 06:32:55;;;;;;;6.55;4.72;;;4.80;79.10;;;;;;6248599;28;20492;-76
2021/04/09 06:35:58;;;;;;;9.27;4.20;;;4.90;78.70;;;;;;6248025;28;20414;-76
2021/04/09 06:38:59;;;;;;;9.52;3.88;;;5.10;78.30;;;;;;6248563;28;20506;-76
2021/04/09 06:42:01;;;;;;;5.88;4.45;;;5.30;75.90;;;;;;6248294;28;20049;-76
2021/04/09 06:45:04;;;;;;;8.38;6.20;;;5.40;74.50;;;;;;6247820;28;20076;-76
2021/04/09 06:48:06;;;;;;;9.85;7.25;;;5.60;73.80;;;;;;6248277;28;20038;-76
2021/04/09 06:51:10;;;;;;;9.70;7.70;;;5.70;73.10;;;;;;6248886;28;20129;-76
2021/04/09 06:54:15;;;;;;;12.05;5.88;;;5.90;72.60;;;;;;6248116;28;20491;-75
2021/04/09 06:57:17;;;;;;;8.18;5.28;;;6.10;72.00;;;;;;6247891;28;20059;-76
2021/04/09 07:00:23;;;;;;;10.45;6.28;;;6.30;71.00;;;;;;6248107;28;20045;-76
2021/04/09 07:03:25;;;;;;;5.38;4.88;;;6.50;69.80;;;;;;6247703;28;20112;-76
2021/04/09 07:06:30;;;;;;;6.53;5.93;;;6.60;69.90;;;;;;6248285;28;20050;-76
2021/04/09 07:09:31;;;;;;;7.47;6.35;;;6.70;68.90;;;;;;6247740;28;20045;-76
2021/04/09 07:12:34;;;;;;;7.22;5.35;;;6.80;68.70;;;;;;6247765;28;20128;-77
2021/04/09 07:15:40;;;;;;;5.53;4.97;;;7.00;68.20;;;;;;6247448;28;20170;-76
2021/04/09 07:18:50;;;;;;;8.98;6.32;;;7.20;67.40;;;;;;6247708;28;20129;-75
2021/04/09 07:22:01;;;;;;;7.43;6.75;;;7.40;66.30;;;;;;6247751;28;20049;-76
2021/04/09 07:25:05;;;;;;;6.55;5.22;;;7.60;65.60;;;;;;6247258;28;20069;-75
2021/04/09 07:28:12;;;;;;;12.40;7.13;;;7.90;64.70;;;;;;6247469;28;20129;-76
2021/04/09 07:31:27;;;;;;;8.20;5.82;;;8.10;63.50;;;;;;6247370;28;20133;-76
2021/04/09 07:34:50;;;;;;;10.50;6.38;;;8.30;62.70;;;;;;6247750;28;20056;-75
2021/04/09 07:37:55;;;;;;;6.63;5.70;;;8.60;61.60;;;;;;6247287;28;20471;-76
2021/04/09 07:40:59;;;;;;;6.50;4.85;;;8.90;60.70;;;;;;6251323;28;20419;-77
2021/04/09 07:44:14;;;;;;;8.63;4.45;;;9.10;59.50;;;;;;6247033;28;20115;-77
2021/04/09 07:47:16;;;;;;;4.72;4.28;;;9.10;59.00;;;;;;6250021;28;20056;-77
2021/04/09 07:50:17;;;;;;;6.10;5.03;;;9.20;58.50;;;;;;6250955;28;20450;-77
2021/04/09 07:53:34;;;;;;;5.82;4.32;;;9.30;57.90;;;;;;6248269;28;20133;-77
2021/04/09 07:56:42;;;;;;;50.40;14.52;;;9.30;57.20;;;;;;6247231;28;20247;-77
2021/04/09 07:59:43;;;;;;;20.95;8.73;;;9.70;64.30;;;;;;6247669;28;20128;-77
2021/04/09 08:02:45;;;;;;;40.58;12.15;;;10.30;61.30;;;;;;6249364;28;20057;-78
2021/04/09 08:06:04;;;;;;;9.00;6.10;;;10.80;62.20;;;;;;6250178;28;20084;-78
2021/04/09 08:09:07;;;;;;;5.38;3.75;;;11.50;57.20;;;;;;6250039;28;20100;-78
2021/04/09 08:12:09;;;;;;;6.60;4.63;;;11.70;52.40;;;;;;6248743;28;20069;-78
2021/04/09 08:15:16;;;;;;;7.20;4.38;;;11.50;51.50;;;;;;6247510;28;20049;-77
2021/04/09 08:18:28;;;;;;;7.05;5.05;;;11.30;51.80;;;;;;6247300;28;20077;-77
2021/04/09 08:21:31;;;;;;;6.15;3.95;;;11.10;51.60;;;;;;6246191;28;20046;-77
2021/04/09 08:24:36;;;;;;;4.40;3.88;;;11.00;51.00;;;;;;6246154;28;20045;-76
2021/04/09 08:27:37;;;;;;;5.35;4.30;;;11.20;51.20;;;;;;6246295;28;20050;-77
2021/04/09 08:30:40;;;;;;;7.57;5.00;;;11.40;51.40;;;;;;6246693;28;20073;-77
2021/04/09 08:33:42;;;;;;;5.30;4.25;;;11.60;51.50;;;;;;6246126;28;20503;-77
2021/04/09 08:36:44;;;;;;;10.10;4.95;;;11.80;51.50;;;;;;6246063;28;20079;-77
2021/04/09 08:39:47;;;;;;;6.55;5.85;;;11.90;51.30;;;;;;6245242;28;20077;-77
2021/04/09 08:42:48;;;;;;;6.63;5.07;;;12.00;50.20;;;;;;6245328;28;20499;-77
2021/04/09 08:45:51;;;;;;;5.20;4.70;;;11.90;50.40;;;;;;6245781;28;20571;-77
2021/04/09 08:48:55;;;;;;;11.18;5.97;;;11.80;50.00;;;;;;6247462;28;20128;-77
2021/04/09 08:52:00;;;;;;;6.25;5.20;;;11.80;50.30;;;;;;6246469;28;20041;-77
2021/04/09 08:55:02;;;;;;;10.23;5.13;;;12.00;49.30;;;;;;6247194;28;20132;-75
2021/04/09 08:58:14;;;;;;;9.65;5.10;;;12.40;48.60;;;;;;6246124;28;20410;-76
2021/04/09 09:01:15;;;;;;;7.72;5.05;;;12.60;48.10;;;;;;6246096;28;20137;-74
2021/04/09 09:04:41;;;;;;;6.20;4.20;;;12.80;47.70;;;;;;6246627;28;20046;-76
2021/04/09 09:07:56;;;;;;;8.38;4.53;;;13.00;46.90;;;;;;6233445;28;20120;-77
2021/04/09 09:10:59;;;;;;;4.78;3.85;;;13.10;46.20;;;;;;6250995;28;20538;-75
2021/04/09 09:14:00;;;;;;;6.80;4.53;;;13.30;45.10;;;;;;6250484;28;20124;-74
2021/04/09 09:17:38;;;;;;;8.63;4.38;;;13.50;44.60;;;;;;6249874;28;20495;-75
2021/04/09 09:21:00;;;;;;;8.63;5.05;;;13.80;43.30;;;;;;6250399;28;20507;-74
2021/04/09 09:24:03;;;;;;;8.55;4.43;;;14.10;43.60;;;;;;6250437;28;20042;-75
2021/04/09 09:27:11;;;;;;;4.57;4.07;;;14.40;42.80;;;;;;6250457;28;20080;-75
2021/04/09 09:30:29;;;;;;;6.22;4.35;;;14.80;42.00;;;;;;6249960;28;20046;-75
2021/04/09 09:33:31;;;;;;;;;;;15.20;40.70;;;;;;6250314;28;20479;-75
2021/04/09 09:36:58;;;;;;;8.52;4.35;;;15.50;40.40;;;;;;6249942;28;20397;-75
2021/04/09 09:40:02;;;;;;;6.35;4.90;;;15.80;39.30;;;;;;6249535;28;20046;-75
2021/04/09 09:43:05;;;;;;;10.55;4.13;;;16.00;38.20;;;;;;6249825;28;20049;-75
2021/04/09 09:46:06;;;;;;;6.68;4.57;;;16.20;38.00;;;;;;6249163;28;20137;-75
2021/04/09 09:49:08;;;;;;;4.93;3.83;;;16.50;37.00;;;;;;6249406;28;20069;-75
2021/04/09 09:52:24;;;;;;;8.63;4.47;;;16.70;35.90;;;;;;6249729;28;20519;-76
2021/04/09 09:55:28;;;;;;;4.13;3.60;;;16.80;35.70;;;;;;6249210;28;20136;-75
2021/04/09 09:58:31;;;;;;;7.47;4.75;;;16.80;35.20;;;;;;6249746;28;20073;-76
2021/04/09 10:01:32;;;;;;;5.30;3.85;;;16.70;34.20;;;;;;6249178;28;20433;-76
2021/04/09 10:04:34;;;;;;;5.18;3.50;;;16.60;34.40;;;;;;6248745;28;20045;-76
2021/04/09 10:07:36;;;;;;;4.63;3.10;;;;;;;;;;6248808;28;20582;-75
2021/04/09 10:10:40;;;;;;;6.05;4.47;;;16.30;33.80;;;;;;6249111;28;20068;-76
2021/04/09 10:13:44;;;;;;;5.80;4.10;;;16.20;35.30;;;;;;6237708;28;20046;-76
2021/04/09 10:16:45;;;;;;;9.10;4.03;;;16.10;35.20;;;;;;6223939;28;20427;-75
2021/04/09 10:20:05;;;;;;;7.38;3.85;;;16.20;37.20;;;;;;6223215;28;20061;-76
2021/04/09 10:23:07;;;;;;;4.95;3.67;;;16.40;38.00;;;;;;6224863;28;20140;-75
2021/04/09 10:26:08;;;;;;;6.47;4.53;;;16.70;36.70;;;;;;6223608;28;20133;-76
2021/04/09 10:29:25;;;;;;;5.03;4.05;;;17.10;36.70;;;;;;6223984;28;20435;-75
2021/04/09 10:32:26;;;;;;;11.95;4.97;;;17.50;36.50;;;;;;6223786;28;20046;-75
2021/04/09 10:35:28;;;;;;;6.90;3.60;;;17.80;35.80;;;;;;6223537;28;20050;-75
2021/04/09 10:38:32;;;;;;;5.57;4.15;;;18.00;34.20;;;;;;6224080;28;20504;-76
2021/04/09 10:41:35;;;;;;;5.57;3.33;;;18.10;34.40;;;;;;6223408;28;20052;-75
2021/04/09 10:44:37;;;;;;;5.80;4.40;;;18.40;33.90;;;;;;6223548;28;20480;-76
2021/04/09 10:47:39;;;;;;;8.38;3.28;;;18.60;33.20;;;;;;6223252;28;20129;-75
2021/04/09 10:50:50;;;;;;;2.65;2.40;;;18.60;32.30;;;;;;6223665;28;20046;-75
2021/04/09 10:53:54;;;;;;;8.63;3.83;;;18.50;32.30;;;;;;6223700;28;20056;-76
2021/04/09 10:56:58;;;;;;;3.22;2.47;;;18.50;32.70;;;;;;6223048;28;20427;-76
2021/04/09 11:00:02;;;;;;;4.07;3.10;;;18.50;31.80;;;;;;6223274;28;20038;-76
2021/04/09 11:03:07;;;;;;;6.68;3.10;;;18.30;31.80;;;;;;6223670;28;20049;-75
2021/04/09 11:06:09;;;;;;;6.82;2.50;;;18.30;32.90;;;;;;6222548;28;20507;-76
2021/04/09 11:09:12;;;;;;;4.72;2.22;;;18.40;33.40;;;;;;6222871;28;20389;-77
2021/04/09 11:12:18;;;;;;;4.10;3.00;;;18.40;33.50;;;;;;6223144;28;20050;-77
2021/04/09 11:15:20;;;;;;;6.60;3.33;;;18.50;32.70;;;;;;6222591;28;20056;-75
2021/04/09 11:18:22;;;;;;;3.15;2.30;;;18.50;33.40;;;;;;6223052;28;20082;-76
2021/04/09 11:21:43;;;;;;;6.28;2.90;;;18.50;33.10;;;;;;6222750;28;20129;-75
2021/04/09 11:24:55;;;;;;;3.47;3.17;;;18.60;33.00;;;;;;6222807;28;20568;-76
2021/04/09 11:27:56;;;;;;;4.43;3.33;;;18.40;32.70;;;;;;6222710;28;20565;-75
2021/04/09 11:31:00;;;;;;;5.72;3.25;;;18.30;33.90;;;;;;6221773;28;20507;-76
2021/04/09 11:34:07;;;;;;;5.68;3.03;;;18.20;33.20;;;;;;6222539;28;20131;-76
2021/04/09 11:37:09;;;;;;;12.52;4.60;;;18.30;33.40;;;;;;6222723;28;20056;-76
2021/04/09 11:40:12;;;;;;;8.00;3.53;;;18.40;33.60;;;;;;6222212;28;20140;-76
2021/04/09 11:43:14;;;;;;;7.25;4.53;;;18.50;32.90;;;;;;6222642;28;20458;-76
2021/04/09 11:46:31;;;;;;;17.92;12.50;;;18.70;32.80;;;;;;6222564;28;20411;-76
2021/04/09 11:49:33;;;;;;;11.77;4.90;;;18.90;33.10;;;;;;6222497;28;20047;-76
2021/04/09 11:52:59;;;;;;;3.95;3.10;;;19.10;33.30;;;;;;6222762;28;20508;-74
2021/04/09 11:56:03;;;;;;;6.25;4.50;;;19.20;32.60;;;;;;6220736;28;20046;-75
2021/04/09 11:59:10;;;;;;;4.32;3.72;;;19.30;32.70;;;;;;6222940;28;20060;-75
2021/04/09 12:02:21;;;;;;;4.57;2.60;;;19.40;33.50;;;;;;6222588;28;20046;-76
2021/04/09 12:05:23;;;;;;;7.10;3.42;;;19.60;31.60;;;;;;6222348;28;20053;-74
2021/04/09 12:08:24;;;;;;;5.53;3.08;;;19.50;31.70;;;;;;6220321;28;20125;-74
2021/04/09 12:11:25;;;;;;;14.80;12.82;;;19.30;31.60;;;;;;6219898;28;20145;-75
2021/04/09 12:14:38;;;;;;;25.92;21.92;;;19.20;33.40;;;;;;6240312;28;20077;-74
2021/04/09 12:17:40;;;;;;;6.03;4.15;;;19.20;31.90;;;;;;6257823;28;20097;-76
2021/04/09 12:20:42;;;;;;;6.30;4.28;;;19.40;31.60;;;;;;6272891;28;20041;-75
2021/04/09 12:23:43;;;;;;;7.13;3.80;;;19.50;31.30;;;;;;6257650;28;20045;-75
2021/04/09 12:26:44;;;;;;;5.72;3.00;;;19.60;32.50;;;;;;6250613;28;20067;-75
2021/04/09 12:29:47;;;;;;;6.72;4.00;;;19.80;31.20;;;;;;6250313;28;20057;-75
2021/04/09 12:32:49;;;;;;;4.95;2.30;;;19.80;31.60;;;;;;6249729;28;20077;-76
2021/04/09 12:35:50;;;;;;;7.85;2.22;;;19.80;31.10;;;;;;6248313;28;20076;-77
2021/04/09 12:38:51;;;;;;;6.63;3.55;;;19.70;32.00;;;;;;6250273;28;20050;-75
2021/04/09 12:41:53;;;;;;;5.32;2.95;;;19.70;31.50;;;;;;6229433;28;20050;-75
2021/04/09 12:44:55;;;;;;;4.80;2.80;;;19.70;31.60;;;;;;6230364;28;20519;-76
2021/04/09 12:47:57;;;;;;;5.93;2.80;;;19.80;31.50;;;;;;6227770;28;20100;-75
2021/04/09 12:50:58;;;;;;;5.40;3.17;;;19.70;31.30;;;;;;6227888;28;20590;-74
2021/04/09 12:54:00;;;;;;;7.40;2.97;;;19.80;31.70;;;;;;6227435;28;20420;-72
2021/04/09 12:57:01;;;;;;;5.60;2.50;;;20.00;31.10;;;;;;6227500;28;20065;-75
2021/04/09 13:00:03;;;;;;;5.30;2.65;;;20.10;31.70;;;;;;6227378;28;20038;-75
2021/04/09 13:03:06;;;;;;;4.43;2.13;;;20.20;31.50;;;;;;6226472;28;20052;-74
2021/04/09 13:06:08;;;;;;;6.30;2.45;;;20.10;30.70;;;;;;6225274;28;20484;-75
2021/04/09 13:09:10;;;;;;;4.63;2.50;;;20.00;31.20;;;;;;6219337;28;20070;-76
2021/04/09 13:12:11;;;;;;;8.77;2.92;;;19.70;31.70;;;;;;6222115;28;20136;-75
2021/04/09 13:15:14;;;;;;;4.93;2.40;;;19.30;32.60;;;;;;6225008;28;20547;-75
2021/04/09 13:18:16;;;;;;;4.90;2.40;;;19.20;32.10;;;;;;6226077;28;20486;-75
2021/04/09 13:21:18;;;;;;;5.10;2.42;;;19.30;32.30;;;;;;6225093;28;20054;-75
2021/04/09 13:24:19;;;;;;;6.10;2.55;;;19.30;32.30;;;;;;6225433;28;20125;-75
2021/04/09 13:27:21;;;;;;;7.07;2.63;;;19.30;32.30;;;;;;6224527;28;20085;-75
2021/04/09 13:30:23;;;;;;;3.30;2.70;;;19.30;32.30;;;;;;6225685;28;20136;-75
2021/04/09 13:33:28;;;;;;;7.55;3.33;;;19.30;32.50;;;;;;6224851;28;20129;-75
2021/04/09 13:36:29;;;;;;;13.38;9.63;;;19.30;31.90;;;;;;6224700;28;20129;-75
2021/04/09 13:39:31;;;;;;;4.65;2.65;;;19.30;32.80;;;;;;6224382;28;20552;-75
2021/04/09 13:42:32;;;;;;;6.63;4.13;;;19.30;31.70;;;;;;6225053;28;20081;-78
2021/04/09 13:45:34;;;;;;;7.07;3.35;;;19.30;31.70;;;;;;6226046;28;20050;-77
2021/04/09 13:48:40;;;;;;;7.13;3.05;;;19.30;31.80;;;;;;6224610;28;20121;-77
2021/04/09 13:51:42;;;;;;;7.10;3.22;;;19.40;32.00;;;;;;6226606;28;20050;-77
2021/04/09 13:54:43;;;;;;;5.43;3.80;;;19.50;31.50;;;;;;6223722;28;20081;-77
2021/04/09 13:57:44;;;;;;;5.20;3.10;;;19.60;32.00;;;;;;6225458;28;20487;-77
2021/04/09 14:00:46;;;;;;;2.45;2.00;;;19.60;32.90;;;;;;6226142;28;20084;-78
2021/04/09 14:03:48;;;;;;;5.57;2.20;;;19.60;31.10;;;;;;6227169;28;20081;-77
2021/04/09 14:06:49;;;;;;;2.85;2.03;;;19.50;31.80;;;;;;6226877;28;20061;-79
2021/04/09 14:09:52;;;;;;;6.75;2.47;;;19.30;30.90;;;;;;6226160;28;20045;-78
2021/04/09 14:12:54;;;;;;;7.03;2.50;;;19.20;31.10;;;;;;6229243;28;20144;-78
2021/04/09 14:15:55;;;;;;;2.92;2.30;;;19.10;31.60;;;;;;6250283;28;20060;-78
2021/04/09 14:18:57;;;;;;;6.00;2.95;;;19.00;31.00;;;;;;6252221;28;20053;-78
2021/04/09 14:21:58;;;;;;;6.30;3.03;;;19.00;31.60;;;;;;6250805;28;20471;-77
2021/04/09 14:25:00;;;;;;;3.80;2.65;;;19.00;31.40;;;;;;6249699;28;20064;-77
2021/04/09 14:28:01;;;;;;;3.90;2.30;;;19.10;32.10;;;;;;6250197;28;20076;-78
2021/04/09 14:31:04;;;;;;;4.88;2.33;;;19.10;31.50;;;;;;6251691;28;20132;-77
2021/04/09 14:34:06;;;;;;;4.53;2.92;;;19.10;31.50;;;;;;6250151;28;20080;-78
2021/04/09 14:37:08;;;;;;;2.50;2.08;;;19.00;31.90;;;;;;6213882;28;20117;-78
2021/04/09 14:40:10;;;;;;;3.55;2.42;;;18.90;31.50;;;;;;6202418;28;20078;-78
2021/04/09 14:43:12;;;;;;;5.68;3.17;;;18.70;31.60;;;;;;6203145;28;20101;-78
2021/04/09 14:46:13;;;;;;;4.75;2.75;;;18.50;32.20;;;;;;6203125;28;20140;-79
2021/04/09 14:49:15;;;;;;;3.60;2.30;;;18.50;32.50;;;;;;6203625;28;20129;-78
2021/04/09 14:52:16;;;;;;;5.07;2.25;;;18.50;32.60;;;;;;6203613;28;20101;-79
2021/04/09 14:55:18;;;;;;;4.65;2.70;;;18.50;32.50;;;;;;6202148;28;20556;-78
2021/04/09 14:58:19;;;;;;;4.55;2.42;;;18.40;32.40;;;;;;6203949;28;20583;-78
2021/04/09 15:01:21;;;;;;;5.75;2.90;;;18.40;32.50;;;;;;6203694;28;20069;-78
2021/04/09 15:04:23;;;;;;;4.65;2.88;;;18.40;32.70;;;;;;6202883;28;20074;-78
2021/04/09 15:07:25;;;;;;;4.75;2.65;;;18.50;32.40;;;;;;6201729;28;20143;-78
2021/04/09 15:10:26;;;;;;;12.32;2.78;;;18.50;32.50;;;;;;6202994;28;20133;-78
2021/04/09 15:13:28;;;;;;;3.45;2.38;;;18.50;32.80;;;;;;6223377;28;20065;-78
2021/04/09 15:16:29;;;;;;;6.07;3.60;;;18.50;32.90;;;;;;6227009;28;20046;-78
2021/04/09 15:19:31;;;;;;;4.20;2.17;;;18.40;32.90;;;;;;6227839;28;20093;-78
2021/04/09 15:22:33;;;;;;;7.47;3.05;;;18.40;32.60;;;;;;6227355;28;20136;-78
2021/04/09 15:25:36;;;;;;;4.30;2.60;;;18.40;32.70;;;;;;6225979;28;20109;-78
2021/04/09 15:28:38;;;;;;;3.97;2.30;;;18.40;40.70;;;;;;6226187;28;20103;-78
2021/04/09 15:31:39;;;;;;;7.22;3.17;;;18.40;36.20;;;;;;6226720;28;20509;-78
2021/04/09 15:34:41;;;;;;;6.00;3.15;;;18.10;33.20;;;;;;6226478;28;20487;-78
2021/04/09 15:37:44;;;;;;;8.65;2.70;;;18.10;33.40;;;;;;6225879;28;20070;-77
2021/04/09 15:40:45;;;;;;;11.27;5.78;;;18.20;33.00;;;;;;6222388;28;20042;-77
2021/04/09 15:43:46;;;;;;;15.95;13.45;;;18.30;33.00;;;;;;6222448;28;20499;-77
2021/04/09 15:46:48;;;;;;;7.22;2.58;;;18.40;33.30;;;;;;6221916;28;20077;-77
2021/04/09 15:49:51;;;;;;;5.88;4.28;;;18.60;33.10;;;;;;6222559;28;20061;-77
2021/04/09 15:52:52;;;;;;;4.97;2.75;;;18.60;32.90;;;;;;6222528;28;20133;-78
2021/04/09 15:55:54;;;;;;;4.65;2.13;;;18.60;32.90;;;;;;6222325;28;20117;-77
2021/04/09 15:58:55;;;;;;;2.78;1.63;;;18.50;32.70;;;;;;6222499;28;20069;-76